Startpagina
METAR-TAF:

METAR-TAF

Vliegvelden :

Luchthaven Damascus

Damascus, Syrië

breedte: 33-25N, lengte: 036-31E, hoogte: 608 m

Actueel weer

Dit bericht is 47 minuten geleden gemaakt, om 22:00 UTC
Weinig wind
Temperatuur 22°C
Vochtigheid 35%
Druk 1014 hPa
Zicht 10 km of meer
geen wolken onder 1500 m en geen cumulonimbus

METAR: OSDI 232200Z 00000KT CAVOK 22/06 Q1014

Tijdstip: 01:47 (22:47 UTC)

Verwachting

Dit bericht is 6 uur en het 47 minuten geleden gemaakt, om 16:00 UTC
Verwachting geldig van 23 om 18 UTC tot 24 om 24 UTC
Wind 3 kt uit variabele richting
Zicht 10 km of meer
geen wolken onder 1500 m en geen cumulonimbus
Tijdelijke
van 24 om 12 UTC tot 24 om 20 UTC
Wind 12 kt uit het westzuidwesten

TAF: OSDI 231600Z 2318/2424 VRB03KT CAVOK TEMPO 2412/2420 24012KT

Waarnemingen en weersverwachtingen van meer dan 4000 vliegvelden (METAR en TAF).

De beschikbare stations zijn de gele en rode punten op de kaart.

Ga met uw muis naar het station om de naam te zien.

Klik dan om waarnemingen en weersverwachtingen te zien.

kaart wijzigen: klik op de groene knoppen met een zwart kruis om in te zoomen, op de groene knop met een streepje om uit te zoomen of op de groene pijlen voor aangrenzende kaarten.


METAR-TAF: